sensor_id;sensor_type;location;lat;lon;timestamp;temperature;humidity
2825;DHT22;1420;51.324;12.344;2023-11-21T00:01:26;7.10;99.90
2825;DHT22;1420;51.324;12.344;2023-11-21T00:03:54;7.10;99.90
2825;DHT22;1420;51.324;12.344;2023-11-21T00:06:21;7.10;99.90
2825;DHT22;1420;51.324;12.344;2023-11-21T00:08:49;7.00;99.90
2825;DHT22;1420;51.324;12.344;2023-11-21T00:11:17;7.00;99.90
2825;DHT22;1420;51.324;12.344;2023-11-21T00:13:45;6.90;99.90
2825;DHT22;1420;51.324;12.344;2023-11-21T00:16:13;6.90;99.90
2825;DHT22;1420;51.324;12.344;2023-11-21T00:18:40;6.80;99.90
2825;DHT22;1420;51.324;12.344;2023-11-21T00:21:07;6.90;99.90
2825;DHT22;1420;51.324;12.344;2023-11-21T00:23:34;6.90;99.90
2825;DHT22;1420;51.324;12.344;2023-11-21T00:26:02;6.80;99.90
2825;DHT22;1420;51.324;12.344;2023-11-21T00:28:29;6.80;99.90
2825;DHT22;1420;51.324;12.344;2023-11-21T00:30:56;6.80;99.90
2825;DHT22;1420;51.324;12.344;2023-11-21T00:33:23;6.80;99.90
2825;DHT22;1420;51.324;12.344;2023-11-21T00:35:50;6.80;99.90
2825;DHT22;1420;51.324;12.344;2023-11-21T00:38:18;6.80;99.90
2825;DHT22;1420;51.324;12.344;2023-11-21T00:40:45;6.80;99.90
2825;DHT22;1420;51.324;12.344;2023-11-21T00:43:12;6.70;99.90
2825;DHT22;1420;51.324;12.344;2023-11-21T00:45:39;6.70;99.90
2825;DHT22;1420;51.324;12.344;2023-11-21T00:48:06;6.70;99.90
2825;DHT22;1420;51.324;12.344;2023-11-21T00:50:34;6.60;99.90
2825;DHT22;1420;51.324;12.344;2023-11-21T00:53:02;6.60;99.90
2825;DHT22;1420;51.324;12.344;2023-11-21T00:55:30;6.60;99.90
2825;DHT22;1420;51.324;12.344;2023-11-21T00:57:57;6.50;99.90
2825;DHT22;1420;51.324;12.344;2023-11-21T01:00:25;6.60;99.90
2825;DHT22;1420;51.324;12.344;2023-11-21T01:02:52;6.60;99.90
2825;DHT22;1420;51.324;12.344;2023-11-21T01:05:19;6.60;99.90
2825;DHT22;1420;51.324;12.344;2023-11-21T01:07:46;6.50;99.90
2825;DHT22;1420;51.324;12.344;2023-11-21T01:10:13;6.50;99.90
2825;DHT22;1420;51.324;12.344;2023-11-21T01:12:41;6.50;99.90
2825;DHT22;1420;51.324;12.344;2023-11-21T01:15:08;6.50;99.90
2825;DHT22;1420;51.324;12.344;2023-11-21T01:17:36;6.50;99.90
2825;DHT22;1420;51.324;12.344;2023-11-21T01:20:04;6.50;99.90
2825;DHT22;1420;51.324;12.344;2023-11-21T01:22:40;6.40;99.90
2825;DHT22;1420;51.324;12.344;2023-11-21T01:25:07;6.40;99.90
2825;DHT22;1420;51.324;12.344;2023-11-21T01:27:34;6.50;99.90
2825;DHT22;1420;51.324;12.344;2023-11-21T01:30:02;6.60;99.90
2825;DHT22;1420;51.324;12.344;2023-11-21T01:32:28;6.70;99.90
2825;DHT22;1420;51.324;12.344;2023-11-21T01:34:56;6.70;99.90
2825;DHT22;1420;51.324;12.344;2023-11-21T01:37:23;6.80;99.90
2825;DHT22;1420;51.324;12.344;2023-11-21T01:39:50;6.80;99.90
2825;DHT22;1420;51.324;12.344;2023-11-21T01:42:17;6.90;99.90
2825;DHT22;1420;51.324;12.344;2023-11-21T01:44:45;7.00;99.90
2825;DHT22;1420;51.324;12.344;2023-11-21T01:47:13;6.90;99.90
2825;DHT22;1420;51.324;12.344;2023-11-21T01:49:40;7.10;99.90
2825;DHT22;1420;51.324;12.344;2023-11-21T01:52:07;7.00;99.90
2825;DHT22;1420;51.324;12.344;2023-11-21T01:54:34;7.10;99.90
2825;DHT22;1420;51.324;12.344;2023-11-21T01:57:03;7.10;99.90
2825;DHT22;1420;51.324;12.344;2023-11-21T01:59:38;7.10;99.90
2825;DHT22;1420;51.324;12.344;2023-11-21T02:01:57;7.10;99.90
2825;DHT22;1420;51.324;12.344;2023-11-21T02:04:25;7.20;99.90
2825;DHT22;1420;51.324;12.344;2023-11-21T02:06:53;7.20;99.90
2825;DHT22;1420;51.324;12.344;2023-11-21T02:09:24;7.20;99.90
2825;DHT22;1420;51.324;12.344;2023-11-21T02:11:50;7.20;99.90
2825;DHT22;1420;51.324;12.344;2023-11-21T02:14:17;7.30;99.90
2825;DHT22;1420;51.324;12.344;2023-11-21T02:16:44;7.30;99.90
2825;DHT22;1420;51.324;12.344;2023-11-21T02:19:13;7.40;99.90
2825;DHT22;1420;51.324;12.344;2023-11-21T02:21:40;7.40;99.90
2825;DHT22;1420;51.324;12.344;2023-11-21T02:24:08;7.40;99.90
2825;DHT22;1420;51.324;12.344;2023-11-21T02:26:35;7.50;99.90
2825;DHT22;1420;51.324;12.344;2023-11-21T02:29:03;7.40;99.90
2825;DHT22;1420;51.324;12.344;2023-11-21T02:31:31;7.50;99.90
2825;DHT22;1420;51.324;12.344;2023-11-21T02:33:58;7.50;99.90
2825;DHT22;1420;51.324;12.344;2023-11-21T02:36:25;7.50;99.90
2825;DHT22;1420;51.324;12.344;2023-11-21T02:38:52;7.50;99.90
2825;DHT22;1420;51.324;12.344;2023-11-21T02:41:20;7.50;99.90
2825;DHT22;1420;51.324;12.344;2023-11-21T02:43:47;7.60;99.90
2825;DHT22;1420;51.324;12.344;2023-11-21T02:46:14;7.60;99.90
2825;DHT22;1420;51.324;12.344;2023-11-21T02:48:41;7.50;99.90
2825;DHT22;1420;51.324;12.344;2023-11-21T02:51:08;7.70;99.90
2825;DHT22;1420;51.324;12.344;2023-11-21T02:53:36;7.60;99.90
2825;DHT22;1420;51.324;12.344;2023-11-21T02:56:03;7.60;99.90
2825;DHT22;1420;51.324;12.344;2023-11-21T02:58:30;7.50;99.90
2825;DHT22;1420;51.324;12.344;2023-11-21T03:00:57;7.40;99.90
2825;DHT22;1420;51.324;12.344;2023-11-21T03:03:25;7.40;99.90
2825;DHT22;1420;51.324;12.344;2023-11-21T03:05:52;7.30;99.90
2825;DHT22;1420;51.324;12.344;2023-11-21T03:08:19;7.20;99.90
2825;DHT22;1420;51.324;12.344;2023-11-21T03:10:46;7.30;99.90
2825;DHT22;1420;51.324;12.344;2023-11-21T03:13:13;7.30;99.90
2825;DHT22;1420;51.324;12.344;2023-11-21T03:15:41;7.20;99.90
2825;DHT22;1420;51.324;12.344;2023-11-21T03:18:08;7.30;99.90
2825;DHT22;1420;51.324;12.344;2023-11-21T03:20:35;7.30;99.90
2825;DHT22;1420;51.324;12.344;2023-11-21T03:23:02;7.20;99.90
2825;DHT22;1420;51.324;12.344;2023-11-21T03:25:29;7.10;99.90
2825;DHT22;1420;51.324;12.344;2023-11-21T03:27:57;7.00;99.90
2825;DHT22;1420;51.324;12.344;2023-11-21T03:30:25;7.00;99.90
2825;DHT22;1420;51.324;12.344;2023-11-21T03:32:52;7.00;99.90
2825;DHT22;1420;51.324;12.344;2023-11-21T03:35:20;7.00;99.90
2825;DHT22;1420;51.324;12.344;2023-11-21T03:37:47;7.00;99.90
2825;DHT22;1420;51.324;12.344;2023-11-21T03:40:14;7.10;99.90
2825;DHT22;1420;51.324;12.344;2023-11-21T03:42:41;7.20;99.90
2825;DHT22;1420;51.324;12.344;2023-11-21T03:45:10;7.20;99.90
2825;DHT22;1420;51.324;12.344;2023-11-21T03:47:37;7.20;99.90
2825;DHT22;1420;51.324;12.344;2023-11-21T03:50:05;7.20;99.90
2825;DHT22;1420;51.324;12.344;2023-11-21T03:52:32;7.30;99.90
2825;DHT22;1420;51.324;12.344;2023-11-21T03:54:59;7.20;99.90
2825;DHT22;1420;51.324;12.344;2023-11-21T03:57:26;7.30;99.90
2825;DHT22;1420;51.324;12.344;2023-11-21T03:59:54;7.20;99.90
2825;DHT22;1420;51.324;12.344;2023-11-21T04:02:22;7.30;99.90
2825;DHT22;1420;51.324;12.344;2023-11-21T04:04:50;7.30;99.90
2825;DHT22;1420;51.324;12.344;2023-11-21T04:07:18;7.30;99.90
2825;DHT22;1420;51.324;12.344;2023-11-21T04:09:46;7.30;99.90
2825;DHT22;1420;51.324;12.344;2023-11-21T04:12:14;7.30;99.90
2825;DHT22;1420;51.324;12.344;2023-11-21T04:14:41;7.20;99.90
2825;DHT22;1420;51.324;12.344;2023-11-21T04:17:08;7.40;99.90
2825;DHT22;1420;51.324;12.344;2023-11-21T04:19:36;7.30;99.90
2825;DHT22;1420;51.324;12.344;2023-11-21T04:22:03;7.40;99.90
2825;DHT22;1420;51.324;12.344;2023-11-21T04:24:31;7.50;99.90
2825;DHT22;1420;51.324;12.344;2023-11-21T04:26:59;7.40;99.90
2825;DHT22;1420;51.324;12.344;2023-11-21T04:29:26;7.40;99.90
2825;DHT22;1420;51.324;12.344;2023-11-21T04:31:53;7.40;99.90
2825;DHT22;1420;51.324;12.344;2023-11-21T04:34:20;7.40;99.90
2825;DHT22;1420;51.324;12.344;2023-11-21T04:36:49;7.40;99.90
2825;DHT22;1420;51.324;12.344;2023-11-21T04:39:15;7.40;99.90
2825;DHT22;1420;51.324;12.344;2023-11-21T04:41:42;7.40;99.90
2825;DHT22;1420;51.324;12.344;2023-11-21T04:44:09;7.50;99.90
2825;DHT22;1420;51.324;12.344;2023-11-21T04:46:36;7.50;99.90
2825;DHT22;1420;51.324;12.344;2023-11-21T04:51:42;7.60;99.90
2825;DHT22;1420;51.324;12.344;2023-11-21T04:54:09;7.60;99.90
2825;DHT22;1420;51.324;12.344;2023-11-21T04:56:37;7.60;99.90
2825;DHT22;1420;51.324;12.344;2023-11-21T04:59:04;7.50;99.90
2825;DHT22;1420;51.324;12.344;2023-11-21T05:01:31;7.50;99.90
2825;DHT22;1420;51.324;12.344;2023-11-21T05:03:58;7.60;99.90
2825;DHT22;1420;51.324;12.344;2023-11-21T05:06:25;7.50;99.90
2825;DHT22;1420;51.324;12.344;2023-11-21T05:08:53;7.60;99.90
2825;DHT22;1420;51.324;12.344;2023-11-21T05:11:25;7.60;99.90
2825;DHT22;1420;51.324;12.344;2023-11-21T05:13:52;7.60;99.90
2825;DHT22;1420;51.324;12.344;2023-11-21T05:16:19;7.60;99.90
2825;DHT22;1420;51.324;12.344;2023-11-21T05:18:47;7.70;99.90
2825;DHT22;1420;51.324;12.344;2023-11-21T05:21:14;7.70;99.90
2825;DHT22;1420;51.324;12.344;2023-11-21T05:23:41;7.60;99.90
2825;DHT22;1420;51.324;12.344;2023-11-21T05:26:08;7.70;99.90
2825;DHT22;1420;51.324;12.344;2023-11-21T05:28:36;7.60;99.90
2825;DHT22;1420;51.324;12.344;2023-11-21T05:31:04;7.70;99.90
2825;DHT22;1420;51.324;12.344;2023-11-21T05:33:31;7.60;99.90
2825;DHT22;1420;51.324;12.344;2023-11-21T05:35:59;7.60;99.90
2825;DHT22;1420;51.324;12.344;2023-11-21T05:38:26;7.60;99.90
2825;DHT22;1420;51.324;12.344;2023-11-21T05:40:53;7.60;99.90
2825;DHT22;1420;51.324;12.344;2023-11-21T05:43:21;7.60;99.90
2825;DHT22;1420;51.324;12.344;2023-11-21T05:45:49;7.50;99.90
2825;DHT22;1420;51.324;12.344;2023-11-21T05:48:16;7.50;99.90
2825;DHT22;1420;51.324;12.344;2023-11-21T05:50:43;7.60;99.90
2825;DHT22;1420;51.324;12.344;2023-11-21T05:53:11;7.80;99.90
2825;DHT22;1420;51.324;12.344;2023-11-21T05:55:39;7.80;99.90
2825;DHT22;1420;51.324;12.344;2023-11-21T05:58:06;7.90;99.90
2825;DHT22;1420;51.324;12.344;2023-11-21T06:00:33;8.00;99.90
2825;DHT22;1420;51.324;12.344;2023-11-21T06:03:00;8.20;99.90
2825;DHT22;1420;51.324;12.344;2023-11-21T06:05:27;8.10;99.90
2825;DHT22;1420;51.324;12.344;2023-11-21T06:07:55;8.20;99.90
2825;DHT22;1420;51.324;12.344;2023-11-21T06:10:23;8.20;99.90
2825;DHT22;1420;51.324;12.344;2023-11-21T06:12:50;7.90;99.90
2825;DHT22;1420;51.324;12.344;2023-11-21T06:15:17;7.70;99.90
2825;DHT22;1420;51.324;12.344;2023-11-21T06:17:44;7.60;99.90
2825;DHT22;1420;51.324;12.344;2023-11-21T06:20:11;7.60;99.90
2825;DHT22;1420;51.324;12.344;2023-11-21T06:22:42;7.50;99.90
2825;DHT22;1420;51.324;12.344;2023-11-21T06:25:09;7.40;99.90
2825;DHT22;1420;51.324;12.344;2023-11-21T06:27:38;7.40;99.90
2825;DHT22;1420;51.324;12.344;2023-11-21T06:30:06;7.30;99.90
2825;DHT22;1420;51.324;12.344;2023-11-21T06:32:34;7.40;99.90
2825;DHT22;1420;51.324;12.344;2023-11-21T06:35:01;7.30;99.90
2825;DHT22;1420;51.324;12.344;2023-11-21T06:37:28;7.30;99.90
2825;DHT22;1420;51.324;12.344;2023-11-21T06:39:56;7.40;99.90
2825;DHT22;1420;51.324;12.344;2023-11-21T06:42:23;7.30;99.90
2825;DHT22;1420;51.324;12.344;2023-11-21T06:44:50;7.40;99.90
2825;DHT22;1420;51.324;12.344;2023-11-21T06:47:18;7.30;99.90
2825;DHT22;1420;51.324;12.344;2023-11-21T06:49:48;7.30;99.90
2825;DHT22;1420;51.324;12.344;2023-11-21T06:52:15;7.20;99.90
2825;DHT22;1420;51.324;12.344;2023-11-21T06:54:42;7.20;99.90
2825;DHT22;1420;51.324;12.344;2023-11-21T06:57:10;7.20;99.90
2825;DHT22;1420;51.324;12.344;2023-11-21T06:59:37;7.20;99.90
2825;DHT22;1420;51.324;12.344;2023-11-21T07:02:04;7.30;99.90
2825;DHT22;1420;51.324;12.344;2023-11-21T07:04:33;7.30;99.90
2825;DHT22;1420;51.324;12.344;2023-11-21T07:07:02;7.20;99.90
2825;DHT22;1420;51.324;12.344;2023-11-21T07:09:30;7.20;99.90
2825;DHT22;1420;51.324;12.344;2023-11-21T07:11:58;7.10;99.90
2825;DHT22;1420;51.324;12.344;2023-11-21T07:14:26;7.00;99.90
2825;DHT22;1420;51.324;12.344;2023-11-21T07:16:54;7.10;99.90
2825;DHT22;1420;51.324;12.344;2023-11-21T07:19:21;7.00;99.90
2825;DHT22;1420;51.324;12.344;2023-11-21T07:21:48;7.00;99.90
2825;DHT22;1420;51.324;12.344;2023-11-21T07:24:16;7.10;99.90
2825;DHT22;1420;51.324;12.344;2023-11-21T07:26:43;7.10;99.90
2825;DHT22;1420;51.324;12.344;2023-11-21T07:29:11;7.00;99.90
2825;DHT22;1420;51.324;12.344;2023-11-21T07:31:38;7.00;99.90
2825;DHT22;1420;51.324;12.344;2023-11-21T07:34:05;7.10;99.90
2825;DHT22;1420;51.324;12.344;2023-11-21T07:36:33;7.20;99.90
2825;DHT22;1420;51.324;12.344;2023-11-21T07:39:00;7.20;99.90
2825;DHT22;1420;51.324;12.344;2023-11-21T07:41:27;7.20;99.90
2825;DHT22;1420;51.324;12.344;2023-11-21T07:43:54;7.20;99.90
2825;DHT22;1420;51.324;12.344;2023-11-21T07:46:21;7.20;99.90
2825;DHT22;1420;51.324;12.344;2023-11-21T07:48:49;7.20;99.90
2825;DHT22;1420;51.324;12.344;2023-11-21T07:51:16;7.20;99.90
2825;DHT22;1420;51.324;12.344;2023-11-21T07:53:43;7.20;99.90
2825;DHT22;1420;51.324;12.344;2023-11-21T07:56:10;7.20;99.90
2825;DHT22;1420;51.324;12.344;2023-11-21T07:58:38;7.30;99.90
2825;DHT22;1420;51.324;12.344;2023-11-21T08:01:05;7.20;99.90
2825;DHT22;1420;51.324;12.344;2023-11-21T08:03:33;7.30;99.90
2825;DHT22;1420;51.324;12.344;2023-11-21T08:06:01;7.20;99.90
2825;DHT22;1420;51.324;12.344;2023-11-21T08:08:28;7.20;99.90
2825;DHT22;1420;51.324;12.344;2023-11-21T08:10:55;7.30;99.90
2825;DHT22;1420;51.324;12.344;2023-11-21T08:13:24;7.20;99.90
2825;DHT22;1420;51.324;12.344;2023-11-21T08:15:54;7.20;99.90
2825;DHT22;1420;51.324;12.344;2023-11-21T08:18:21;7.10;99.90
2825;DHT22;1420;51.324;12.344;2023-11-21T08:20:48;7.20;99.90
2825;DHT22;1420;51.324;12.344;2023-11-21T08:23:16;7.10;99.90
2825;DHT22;1420;51.324;12.344;2023-11-21T08:25:44;7.10;99.90
2825;DHT22;1420;51.324;12.344;2023-11-21T08:28:12;7.20;99.90
2825;DHT22;1420;51.324;12.344;2023-11-21T08:30:39;7.10;99.90
2825;DHT22;1420;51.324;12.344;2023-11-21T08:33:07;7.00;99.90
2825;DHT22;1420;51.324;12.344;2023-11-21T08:35:35;7.00;99.90
2825;DHT22;1420;51.324;12.344;2023-11-21T08:38:03;6.90;99.90
2825;DHT22;1420;51.324;12.344;2023-11-21T08:40:30;6.80;99.90
2825;DHT22;1420;51.324;12.344;2023-11-21T08:42:57;6.90;99.90
2825;DHT22;1420;51.324;12.344;2023-11-21T08:45:25;6.90;99.90
2825;DHT22;1420;51.324;12.344;2023-11-21T08:47:52;7.00;99.90
2825;DHT22;1420;51.324;12.344;2023-11-21T08:50:20;6.90;99.90
2825;DHT22;1420;51.324;12.344;2023-11-21T08:52:47;6.80;99.90
2825;DHT22;1420;51.324;12.344;2023-11-21T08:55:14;6.90;99.90
2825;DHT22;1420;51.324;12.344;2023-11-21T08:57:43;6.90;99.90
2825;DHT22;1420;51.324;12.344;2023-11-21T09:00:09;6.80;99.90
2825;DHT22;1420;51.324;12.344;2023-11-21T09:02:38;6.80;99.90
2825;DHT22;1420;51.324;12.344;2023-11-21T09:05:06;6.90;99.90
2825;DHT22;1420;51.324;12.344;2023-11-21T09:07:33;6.90;99.90
2825;DHT22;1420;51.324;12.344;2023-11-21T09:10:00;6.80;99.90
2825;DHT22;1420;51.324;12.344;2023-11-21T09:12:27;6.80;99.90
2825;DHT22;1420;51.324;12.344;2023-11-21T09:14:55;6.70;99.90
2825;DHT22;1420;51.324;12.344;2023-11-21T09:17:22;6.70;99.90
2825;DHT22;1420;51.324;12.344;2023-11-21T09:19:49;6.70;99.90
2825;DHT22;1420;51.324;12.344;2023-11-21T09:22:17;6.70;99.90
2825;DHT22;1420;51.324;12.344;2023-11-21T09:24:44;6.70;99.90
2825;DHT22;1420;51.324;12.344;2023-11-21T09:27:11;6.70;99.90
2825;DHT22;1420;51.324;12.344;2023-11-21T09:29:39;6.80;99.90
2825;DHT22;1420;51.324;12.344;2023-11-21T09:32:07;6.70;99.90
2825;DHT22;1420;51.324;12.344;2023-11-21T09:34:34;6.60;99.90
2825;DHT22;1420;51.324;12.344;2023-11-21T09:37:02;6.60;99.90
2825;DHT22;1420;51.324;12.344;2023-11-21T09:39:30;6.60;99.90
2825;DHT22;1420;51.324;12.344;2023-11-21T09:41:58;6.50;99.90
2825;DHT22;1420;51.324;12.344;2023-11-21T09:44:44;6.50;99.90
2825;DHT22;1420;51.324;12.344;2023-11-21T09:47:07;6.60;99.90
2825;DHT22;1420;51.324;12.344;2023-11-21T09:49:34;6.70;99.90
2825;DHT22;1420;51.324;12.344;2023-11-21T09:52:01;6.70;99.90
2825;DHT22;1420;51.324;12.344;2023-11-21T09:54:31;6.70;99.90
2825;DHT22;1420;51.324;12.344;2023-11-21T09:56:59;6.80;99.90
2825;DHT22;1420;51.324;12.344;2023-11-21T09:59:28;6.80;99.90
2825;DHT22;1420;51.324;12.344;2023-11-21T10:01:53;6.70;99.90
2825;DHT22;1420;51.324;12.344;2023-11-21T10:04:21;6.60;99.90
2825;DHT22;1420;51.324;12.344;2023-11-21T10:06:48;6.70;99.90
2825;DHT22;1420;51.324;12.344;2023-11-21T10:09:15;6.60;99.90
2825;DHT22;1420;51.324;12.344;2023-11-21T10:11:43;6.50;99.90
2825;DHT22;1420;51.324;12.344;2023-11-21T10:14:10;6.40;99.90
2825;DHT22;1420;51.324;12.344;2023-11-21T10:16:38;6.50;99.90
2825;DHT22;1420;51.324;12.344;2023-11-21T10:19:05;6.40;99.90
2825;DHT22;1420;51.324;12.344;2023-11-21T10:21:33;6.50;99.90
2825;DHT22;1420;51.324;12.344;2023-11-21T10:24:00;6.30;99.90
2825;DHT22;1420;51.324;12.344;2023-11-21T10:26:28;6.30;99.90
2825;DHT22;1420;51.324;12.344;2023-11-21T10:28:57;6.30;99.90
2825;DHT22;1420;51.324;12.344;2023-11-21T10:31:23;6.20;99.90
2825;DHT22;1420;51.324;12.344;2023-11-21T10:33:50;6.20;99.90
2825;DHT22;1420;51.324;12.344;2023-11-21T10:36:26;6.20;99.90
2825;DHT22;1420;51.324;12.344;2023-11-21T10:38:53;6.10;99.90
2825;DHT22;1420;51.324;12.344;2023-11-21T10:41:21;6.10;99.90
2825;DHT22;1420;51.324;12.344;2023-11-21T10:43:48;6.10;99.90
2825;DHT22;1420;51.324;12.344;2023-11-21T10:46:18;6.20;99.90
2825;DHT22;1420;51.324;12.344;2023-11-21T10:48:45;6.20;99.90
2825;DHT22;1420;51.324;12.344;2023-11-21T10:51:12;6.20;99.90
2825;DHT22;1420;51.324;12.344;2023-11-21T10:53:39;6.20;99.90
2825;DHT22;1420;51.324;12.344;2023-11-21T10:56:08;6.30;99.90
2825;DHT22;1420;51.324;12.344;2023-11-21T10:58:35;6.40;99.90
2825;DHT22;1420;51.324;12.344;2023-11-21T11:01:02;6.30;99.90
2825;DHT22;1420;51.324;12.344;2023-11-21T11:03:30;6.40;99.90
2825;DHT22;1420;51.324;12.344;2023-11-21T11:05:57;6.20;99.90
2825;DHT22;1420;51.324;12.344;2023-11-21T11:08:24;6.30;99.90
2825;DHT22;1420;51.324;12.344;2023-11-21T11:10:51;6.30;99.90
2825;DHT22;1420;51.324;12.344;2023-11-21T11:13:19;6.30;99.90
2825;DHT22;1420;51.324;12.344;2023-11-21T11:15:48;6.30;99.90
2825;DHT22;1420;51.324;12.344;2023-11-21T11:18:15;6.30;99.90
2825;DHT22;1420;51.324;12.344;2023-11-21T11:20:42;6.30;99.90
2825;DHT22;1420;51.324;12.344;2023-11-21T11:23:31;6.20;99.90
2825;DHT22;1420;51.324;12.344;2023-11-21T11:28:38;6.20;99.90
2825;DHT22;1420;51.324;12.344;2023-11-21T11:31:06;6.20;99.90
2825;DHT22;1420;51.324;12.344;2023-11-21T11:33:48;6.30;99.90
2825;DHT22;1420;51.324;12.344;2023-11-21T11:36:53;6.20;99.90
2825;DHT22;1420;51.324;12.344;2023-11-21T11:38:59;6.20;99.90
2825;DHT22;1420;51.324;12.344;2023-11-21T11:41:30;6.00;99.90
2825;DHT22;1420;51.324;12.344;2023-11-21T11:43:55;6.00;99.90
2825;DHT22;1420;51.324;12.344;2023-11-21T11:46:54;6.10;99.90
2825;DHT22;1420;51.324;12.344;2023-11-21T11:49:04;6.10;99.90
2825;DHT22;1420;51.324;12.344;2023-11-21T11:51:31;6.00;99.90
2825;DHT22;1420;51.324;12.344;2023-11-21T11:53:59;5.90;99.90
2825;DHT22;1420;51.324;12.344;2023-11-21T11:56:29;6.00;99.90
2825;DHT22;1420;51.324;12.344;2023-11-21T11:58:57;5.90;99.90
2825;DHT22;1420;51.324;12.344;2023-11-21T12:01:24;5.90;99.90
2825;DHT22;1420;51.324;12.344;2023-11-21T12:04:28;6.00;99.90
2825;DHT22;1420;51.324;12.344;2023-11-21T12:06:44;5.90;99.90
2825;DHT22;1420;51.324;12.344;2023-11-21T12:09:18;5.90;99.90
2825;DHT22;1420;51.324;12.344;2023-11-21T12:11:46;5.70;99.90
2825;DHT22;1420;51.324;12.344;2023-11-21T12:14:13;5.60;99.90
2825;DHT22;1420;51.324;12.344;2023-11-21T12:16:40;5.70;99.90
2825;DHT22;1420;51.324;12.344;2023-11-21T12:19:08;5.60;99.90
2825;DHT22;1420;51.324;12.344;2023-11-21T12:21:36;5.50;99.90
2825;DHT22;1420;51.324;12.344;2023-11-21T12:24:02;5.50;99.90
2825;DHT22;1420;51.324;12.344;2023-11-21T12:26:29;5.50;99.90
2825;DHT22;1420;51.324;12.344;2023-11-21T12:28:56;5.50;99.90
2825;DHT22;1420;51.324;12.344;2023-11-21T12:31:24;5.50;99.90
2825;DHT22;1420;51.324;12.344;2023-11-21T12:33:51;5.50;99.90
2825;DHT22;1420;51.324;12.344;2023-11-21T12:36:19;5.40;99.90
2825;DHT22;1420;51.324;12.344;2023-11-21T12:38:47;5.30;99.90
2825;DHT22;1420;51.324;12.344;2023-11-21T12:41:15;5.20;99.90
2825;DHT22;1420;51.324;12.344;2023-11-21T12:43:42;5.20;99.90
2825;DHT22;1420;51.324;12.344;2023-11-21T12:46:10;5.10;99.90
2825;DHT22;1420;51.324;12.344;2023-11-21T12:48:37;5.00;99.90
2825;DHT22;1420;51.324;12.344;2023-11-21T12:51:05;4.90;99.90
2825;DHT22;1420;51.324;12.344;2023-11-21T12:53:32;4.80;99.90
2825;DHT22;1420;51.324;12.344;2023-11-21T12:55:59;4.70;99.90
2825;DHT22;1420;51.324;12.344;2023-11-21T12:58:26;4.60;99.90
2825;DHT22;1420;51.324;12.344;2023-11-21T13:00:55;4.50;99.90
2825;DHT22;1420;51.324;12.344;2023-11-21T13:03:22;4.40;99.90
2825;DHT22;1420;51.324;12.344;2023-11-21T13:05:50;4.40;99.90
2825;DHT22;1420;51.324;12.344;2023-11-21T13:08:17;4.40;99.90
2825;DHT22;1420;51.324;12.344;2023-11-21T13:10:45;4.40;99.90
2825;DHT22;1420;51.324;12.344;2023-11-21T13:13:13;4.40;99.90
2825;DHT22;1420;51.324;12.344;2023-11-21T13:15:51;4.50;99.90
2825;DHT22;1420;51.324;12.344;2023-11-21T13:18:18;4.40;99.90
2825;DHT22;1420;51.324;12.344;2023-11-21T13:20:45;4.40;99.90
2825;DHT22;1420;51.324;12.344;2023-11-21T13:23:12;4.50;99.90
2825;DHT22;1420;51.324;12.344;2023-11-21T13:25:39;4.50;99.90
2825;DHT22;1420;51.324;12.344;2023-11-21T13:28:08;4.50;99.90
2825;DHT22;1420;51.324;12.344;2023-11-21T13:30:36;4.50;99.90
2825;DHT22;1420;51.324;12.344;2023-11-21T13:33:03;4.50;99.90
2825;DHT22;1420;51.324;12.344;2023-11-21T13:35:34;4.50;99.90
2825;DHT22;1420;51.324;12.344;2023-11-21T13:38:05;4.50;99.90
2825;DHT22;1420;51.324;12.344;2023-11-21T13:40:32;4.50;99.90
2825;DHT22;1420;51.324;12.344;2023-11-21T13:42:59;4.60;99.90
2825;DHT22;1420;51.324;12.344;2023-11-21T13:45:27;4.80;99.90
2825;DHT22;1420;51.324;12.344;2023-11-21T13:47:54;4.70;99.90
2825;DHT22;1420;51.324;12.344;2023-11-21T13:50:21;4.80;99.90
2825;DHT22;1420;51.324;12.344;2023-11-21T13:52:49;4.80;99.90
2825;DHT22;1420;51.324;12.344;2023-11-21T13:55:17;4.80;99.90
2825;DHT22;1420;51.324;12.344;2023-11-21T13:57:45;4.80;99.90
2825;DHT22;1420;51.324;12.344;2023-11-21T14:00:12;4.80;99.90
2825;DHT22;1420;51.324;12.344;2023-11-21T14:02:40;4.80;99.90
2825;DHT22;1420;51.324;12.344;2023-11-21T14:05:07;4.90;99.90
2825;DHT22;1420;51.324;12.344;2023-11-21T14:07:35;5.00;99.90
2825;DHT22;1420;51.324;12.344;2023-11-21T14:10:03;4.90;99.90
2825;DHT22;1420;51.324;12.344;2023-11-21T14:12:30;5.00;99.90
2825;DHT22;1420;51.324;12.344;2023-11-21T14:14:57;5.00;99.90
2825;DHT22;1420;51.324;12.344;2023-11-21T14:17:25;5.00;99.90
2825;DHT22;1420;51.324;12.344;2023-11-21T14:19:52;5.00;99.90
2825;DHT22;1420;51.324;12.344;2023-11-21T14:22:20;5.00;99.90
2825;DHT22;1420;51.324;12.344;2023-11-21T14:24:48;5.00;99.90
2825;DHT22;1420;51.324;12.344;2023-11-21T14:27:16;4.90;99.90
2825;DHT22;1420;51.324;12.344;2023-11-21T14:29:44;4.90;99.90
2825;DHT22;1420;51.324;12.344;2023-11-21T14:32:11;4.90;99.90
2825;DHT22;1420;51.324;12.344;2023-11-21T14:34:38;4.90;99.90
2825;DHT22;1420;51.324;12.344;2023-11-21T14:37:05;4.90;99.90
2825;DHT22;1420;51.324;12.344;2023-11-21T14:39:33;4.90;99.90
2825;DHT22;1420;51.324;12.344;2023-11-21T14:42:00;4.80;99.90
2825;DHT22;1420;51.324;12.344;2023-11-21T14:44:27;4.80;99.90
2825;DHT22;1420;51.324;12.344;2023-11-21T14:46:54;4.80;99.90
2825;DHT22;1420;51.324;12.344;2023-11-21T14:49:22;4.90;99.90
2825;DHT22;1420;51.324;12.344;2023-11-21T14:51:51;4.70;99.90
2825;DHT22;1420;51.324;12.344;2023-11-21T14:54:32;4.70;99.90
2825;DHT22;1420;51.324;12.344;2023-11-21T14:57:09;4.70;99.90
2825;DHT22;1420;51.324;12.344;2023-11-21T14:59:45;4.70;99.90
2825;DHT22;1420;51.324;12.344;2023-11-21T15:02:14;4.70;99.90
2825;DHT22;1420;51.324;12.344;2023-11-21T15:04:42;4.70;99.90
2825;DHT22;1420;51.324;12.344;2023-11-21T15:07:10;4.70;99.90
2825;DHT22;1420;51.324;12.344;2023-11-21T15:09:39;4.60;99.90
2825;DHT22;1420;51.324;12.344;2023-11-21T15:12:08;4.70;99.90
2825;DHT22;1420;51.324;12.344;2023-11-21T15:14:44;4.70;99.90
2825;DHT22;1420;51.324;12.344;2023-11-21T15:17:11;4.70;99.90
2825;DHT22;1420;51.324;12.344;2023-11-21T15:19:38;4.60;99.90
2825;DHT22;1420;51.324;12.344;2023-11-21T15:22:05;4.90;99.90
2825;DHT22;1420;51.324;12.344;2023-11-21T15:24:32;4.80;99.90
2825;DHT22;1420;51.324;12.344;2023-11-21T15:27:00;4.60;99.90
2825;DHT22;1420;51.324;12.344;2023-11-21T15:29:27;4.60;99.90
2825;DHT22;1420;51.324;12.344;2023-11-21T15:31:54;4.60;99.90
2825;DHT22;1420;51.324;12.344;2023-11-21T15:34:21;4.60;99.90
2825;DHT22;1420;51.324;12.344;2023-11-21T15:36:48;4.60;99.90
2825;DHT22;1420;51.324;12.344;2023-11-21T15:39:16;4.60;99.90
2825;DHT22;1420;51.324;12.344;2023-11-21T15:41:43;4.60;99.90
2825;DHT22;1420;51.324;12.344;2023-11-21T15:44:10;4.70;99.90
2825;DHT22;1420;51.324;12.344;2023-11-21T15:46:37;4.70;99.90
2825;DHT22;1420;51.324;12.344;2023-11-21T15:49:04;4.70;99.90
2825;DHT22;1420;51.324;12.344;2023-11-21T15:51:32;4.70;99.90
2825;DHT22;1420;51.324;12.344;2023-11-21T15:54:00;4.70;99.90
2825;DHT22;1420;51.324;12.344;2023-11-21T15:56:27;4.70;99.90
2825;DHT22;1420;51.324;12.344;2023-11-21T15:58:54;4.70;99.90
2825;DHT22;1420;51.324;12.344;2023-11-21T16:01:21;4.70;99.90
2825;DHT22;1420;51.324;12.344;2023-11-21T16:03:48;4.70;99.90
2825;DHT22;1420;51.324;12.344;2023-11-21T16:06:16;4.60;99.90
2825;DHT22;1420;51.324;12.344;2023-11-21T16:08:43;4.60;99.90
2825;DHT22;1420;51.324;12.344;2023-11-21T16:11:10;4.70;99.90